createdAt,value
2023-02-08T00:01:29.190Z,11.68
2023-02-08T00:03:57.735Z,14.20
2023-02-08T00:06:25.967Z,11.25
2023-02-08T00:08:54.437Z,9.60
2023-02-08T00:11:22.600Z,11.63
2023-02-08T00:13:51.037Z,12.80
2023-02-08T00:16:19.585Z,9.77
2023-02-08T00:18:49.473Z,10.63
2023-02-08T00:21:19.475Z,13.20
2023-02-08T00:23:48.185Z,13.48
2023-02-08T00:26:16.964Z,7.60
2023-02-08T00:28:45.405Z,6.10
2023-02-08T00:31:13.748Z,9.88
2023-02-08T00:33:42.802Z,8.30
2023-02-08T00:36:13.550Z,12.20
2023-02-08T00:38:41.973Z,11.85
2023-02-08T00:41:10.326Z,8.18
2023-02-08T00:43:38.952Z,12.20
2023-02-08T00:46:08.157Z,11.63
2023-02-08T00:48:37.012Z,8.05
2023-02-08T00:51:09.672Z,7.15
2023-02-08T00:53:42.025Z,9.25
2023-02-08T00:56:12.076Z,10.38
2023-02-08T00:58:43.535Z,10.50
2023-02-08T01:01:15.055Z,11.23
2023-02-08T01:03:44.234Z,10.77
2023-02-08T01:06:15.729Z,10.70
2023-02-08T01:08:45.832Z,7.72
2023-02-08T01:11:17.831Z,11.75
2023-02-08T01:13:46.718Z,10.18
2023-02-08T01:16:17.490Z,12.98
2023-02-08T01:18:47.682Z,8.63
2023-02-08T01:21:18.501Z,12.07
2023-02-08T01:23:49.024Z,11.77
2023-02-08T01:26:19.919Z,11.27
2023-02-08T01:28:49.244Z,9.18
2023-02-08T01:31:19.968Z,11.18
2023-02-08T01:33:49.172Z,11.48
2023-02-08T01:36:19.562Z,11.90
2023-02-08T01:38:49.505Z,11.37
2023-02-08T01:41:20.132Z,12.15
2023-02-08T01:44:09.314Z,12.15
2023-02-08T01:46:38.925Z,10.20
2023-02-08T01:49:12.246Z,6.15
2023-02-08T01:51:44.511Z,11.43
2023-02-08T01:54:16.215Z,12.50
2023-02-08T01:56:46.813Z,9.55
2023-02-08T01:59:21.825Z,10.90
2023-02-08T02:01:52.501Z,11.30
2023-02-08T02:04:21.538Z,10.25
2023-02-08T02:06:53.503Z,9.80
2023-02-08T02:09:29.373Z,10.32
2023-02-08T02:11:58.512Z,10.77
2023-02-08T02:16:55.660Z,10.23
2023-02-08T02:19:39.077Z,12.77
2023-02-08T02:22:28.374Z,11.55
2023-02-08T02:25:23.664Z,14.15
2023-02-08T02:28:24.364Z,12.18
2023-02-08T02:31:25.750Z,17.23
2023-02-08T02:34:02.549Z,16.15
2023-02-08T02:36:40.784Z,13.20
2023-02-08T02:39:19.639Z,13.90
2023-02-08T02:42:15.837Z,13.18
2023-02-08T02:44:53.827Z,17.05
2023-02-08T02:47:32.368Z,15.90
2023-02-08T02:50:07.663Z,18.40
2023-02-08T02:52:42.514Z,21.77
2023-02-08T02:55:15.999Z,21.63
2023-02-08T02:57:48.263Z,16.48
2023-02-08T03:00:23.951Z,23.63
2023-02-08T03:02:55.632Z,24.77
2023-02-08T03:05:24.209Z,22.80
2023-02-08T03:08:17.161Z,21.52
2023-02-08T03:11:06.129Z,28.17
2023-02-08T03:13:49.224Z,21.45
2023-02-08T03:16:23.231Z,19.83
2023-02-08T03:19:06.409Z,22.80
2023-02-08T03:21:41.708Z,24.95
2023-02-08T03:24:24.121Z,27.73
2023-02-08T03:26:59.719Z,20.33
2023-02-08T03:29:39.039Z,23.10
2023-02-08T03:32:12.188Z,27.00
2023-02-08T03:34:47.377Z,26.80
2023-02-08T03:37:21.491Z,22.10
2023-02-08T03:39:54.368Z,20.70
2023-02-08T03:42:26.229Z,22.55
2023-02-08T03:45:00.763Z,28.00
2023-02-08T03:47:33.895Z,21.42
2023-02-08T03:50:08.118Z,25.42
2023-02-08T03:52:37.538Z,26.08
2023-02-08T03:55:10.453Z,27.02
2023-02-08T03:57:44.610Z,24.23
2023-02-08T04:00:16.957Z,25.92
2023-02-08T04:02:53.238Z,22.75
2023-02-08T04:05:24.873Z,22.55
2023-02-08T04:07:53.594Z,25.13
2023-02-08T04:10:22.288Z,21.15
2023-02-08T04:12:50.821Z,23.87
2023-02-08T04:15:20.105Z,21.42
2023-02-08T04:17:48.299Z,25.40
2023-02-08T04:20:16.896Z,20.20
2023-02-08T04:22:46.504Z,21.73
2023-02-08T04:25:15.815Z,21.98
2023-02-08T04:27:44.031Z,24.50
2023-02-08T04:30:13.589Z,15.30
2023-02-08T04:32:41.864Z,21.67
2023-02-08T04:35:10.353Z,18.45
2023-02-08T04:37:38.529Z,20.67
2023-02-08T04:40:09.768Z,22.23
2023-02-08T04:42:37.946Z,20.33
2023-02-08T04:45:06.965Z,21.93
2023-02-08T04:47:35.174Z,17.65
2023-02-08T04:50:04.332Z,19.23
2023-02-08T04:52:32.487Z,20.30
2023-02-08T04:55:00.954Z,14.47
2023-02-08T04:57:30.498Z,16.25
2023-02-08T05:00:00.348Z,18.10
2023-02-08T05:02:28.870Z,20.40
2023-02-08T05:04:57.492Z,17.33
2023-02-08T05:07:25.726Z,18.50
2023-02-08T05:09:54.167Z,18.63
2023-02-08T05:12:22.384Z,21.02
2023-02-08T05:14:52.359Z,28.80
2023-02-08T05:17:20.648Z,21.13
2023-02-08T05:19:49.102Z,18.07
2023-02-08T05:22:17.922Z,16.58
2023-02-08T05:24:46.815Z,17.35
2023-02-08T05:27:15.058Z,18.65
2023-02-08T05:29:44.188Z,17.23
2023-02-08T05:32:14.019Z,18.10
2023-02-08T05:34:42.775Z,16.13
2023-02-08T05:37:10.966Z,17.83
2023-02-08T05:39:39.802Z,13.50
2023-02-08T05:42:08.799Z,12.18
2023-02-08T05:44:37.566Z,19.20
2023-02-08T05:47:05.928Z,18.92
2023-02-08T05:49:36.217Z,16.80
2023-02-08T05:52:07.131Z,10.00
2023-02-08T05:54:35.739Z,11.82
2023-02-08T05:57:03.913Z,13.68
2023-02-08T05:59:32.570Z,10.27
2023-02-08T06:02:00.794Z,18.50
2023-02-08T06:04:29.360Z,12.90
2023-02-08T06:06:59.271Z,15.18
2023-02-08T06:09:27.744Z,14.30
2023-02-08T06:11:55.894Z,10.88
2023-02-08T06:14:24.324Z,12.93
2023-02-08T06:16:53.015Z,13.07
2023-02-08T06:19:22.075Z,17.02
2023-02-08T06:21:50.344Z,12.90
2023-02-08T06:24:20.450Z,12.25
2023-02-08T06:26:48.627Z,9.25
2023-02-08T06:29:20.171Z,13.82
2023-02-08T06:31:48.695Z,9.38
2023-02-08T06:34:17.264Z,14.23
2023-02-08T06:36:45.889Z,12.23
2023-02-08T06:39:14.412Z,13.82
2023-02-08T06:41:44.567Z,12.60
2023-02-08T06:44:13.026Z,15.68
2023-02-08T06:46:42.382Z,17.75
2023-02-08T06:49:11.895Z,18.63
2023-02-08T06:51:42.525Z,15.05
2023-02-08T06:54:11.114Z,16.95
2023-02-08T06:56:39.946Z,19.00
2023-02-08T06:59:10.161Z,12.07
2023-02-08T07:01:38.663Z,19.73
2023-02-08T07:04:07.343Z,17.60
2023-02-08T07:06:35.516Z,17.50
2023-02-08T07:09:04.646Z,18.30
2023-02-08T07:11:32.989Z,17.73
2023-02-08T07:14:01.556Z,23.63
2023-02-08T07:16:31.720Z,16.55
2023-02-08T07:18:59.943Z,21.27
2023-02-08T07:21:28.689Z,10.93
2023-02-08T07:23:56.874Z,13.60
2023-02-08T07:26:25.457Z,15.93
2023-02-08T07:28:53.755Z,11.57
2023-02-08T07:31:22.559Z,12.60
2023-02-08T07:33:52.120Z,12.07
2023-02-08T07:36:21.428Z,15.70
2023-02-08T07:38:49.893Z,21.77
2023-02-08T07:41:18.707Z,18.98
2023-02-08T07:43:47.315Z,19.40
2023-02-08T07:46:18.185Z,24.67
2023-02-08T07:48:46.907Z,22.10
2023-02-08T07:51:17.426Z,18.38
2023-02-08T07:53:46.137Z,20.20
2023-02-08T07:56:14.894Z,22.70
2023-02-08T07:58:43.144Z,22.73
2023-02-08T08:01:22.014Z,20.00
2023-02-08T08:06:23.314Z,19.25
2023-02-08T08:08:51.920Z,25.98
2023-02-08T08:11:21.519Z,23.30
2023-02-08T08:13:50.055Z,25.40
2023-02-08T08:16:19.045Z,21.45
2023-02-08T08:18:48.066Z,20.25
2023-02-08T08:23:46.849Z,29.13
2023-02-08T08:26:17.395Z,27.90
2023-02-08T08:28:46.721Z,23.45
2023-02-08T08:31:21.161Z,27.23
2023-02-08T08:33:50.380Z,29.77
2023-02-08T08:36:19.036Z,22.20
2023-02-08T08:38:48.857Z,19.42
2023-02-08T08:41:19.029Z,24.88
2023-02-08T08:43:47.772Z,28.05
2023-02-08T08:46:16.914Z,23.85
2023-02-08T08:48:45.989Z,23.50
2023-02-08T08:51:15.105Z,22.55
2023-02-08T08:53:43.262Z,20.33
2023-02-08T08:56:13.842Z,24.87
2023-02-08T08:58:43.653Z,27.10
2023-02-08T09:01:14.086Z,23.27
2023-02-08T09:03:42.406Z,24.98
2023-02-08T09:06:12.591Z,25.00
2023-02-08T09:08:41.101Z,28.42
2023-02-08T09:11:13.168Z,20.83
2023-02-08T09:13:42.392Z,23.73
2023-02-08T09:16:14.268Z,33.55
2023-02-08T09:18:43.136Z,29.52
2023-02-08T09:21:13.118Z,27.25
2023-02-08T09:23:41.596Z,30.23
2023-02-08T09:26:13.672Z,25.63
2023-02-08T09:28:42.293Z,38.58
2023-02-08T09:31:11.356Z,31.42
2023-02-08T09:33:40.237Z,30.23
2023-02-08T09:36:10.104Z,32.50
2023-02-08T09:38:39.800Z,33.33
2023-02-08T09:41:26.794Z,26.48
2023-02-08T09:44:11.299Z,27.80
2023-02-08T09:46:42.913Z,27.38
2023-02-08T09:49:19.267Z,33.85
2023-02-08T09:51:54.201Z,32.83
2023-02-08T09:54:27.564Z,31.02
2023-02-08T09:57:00.138Z,24.13
2023-02-08T09:59:31.999Z,31.08
2023-02-08T10:02:13.822Z,27.73
2023-02-08T10:04:56.543Z,31.30
2023-02-08T10:07:26.864Z,31.48
2023-02-08T10:09:57.642Z,31.27
2023-02-08T10:12:37.604Z,30.70
2023-02-08T10:18:06.974Z,31.25
2023-02-08T10:20:49.723Z,35.20
2023-02-08T10:23:32.562Z,36.33
2023-02-08T10:26:13.518Z,33.28
2023-02-08T10:29:16.387Z,35.33
2023-02-08T10:32:12.762Z,34.10
2023-02-08T10:34:46.772Z,32.00
2023-02-08T10:37:17.986Z,37.67
2023-02-08T10:39:47.528Z,41.40
2023-02-08T10:42:18.019Z,36.25
2023-02-08T10:45:22.580Z,35.78
2023-02-08T10:47:55.682Z,33.08
2023-02-08T10:50:30.617Z,35.78
2023-02-08T10:52:59.354Z,35.88
2023-02-08T10:55:28.532Z,36.97
2023-02-08T10:58:00.418Z,40.58
2023-02-08T11:00:33.729Z,40.13
2023-02-08T11:03:13.701Z,38.78
2023-02-08T11:05:42.492Z,42.45
2023-02-08T11:08:14.099Z,38.92
2023-02-08T11:10:46.564Z,39.03
2023-02-08T11:13:22.015Z,43.22
2023-02-08T11:15:54.835Z,42.40
2023-02-08T11:18:26.638Z,37.33
2023-02-08T11:20:58.730Z,39.80
2023-02-08T11:23:32.617Z,38.72
2023-02-08T11:26:19.563Z,39.35
2023-02-08T11:29:01.595Z,41.00
2023-02-08T11:31:32.333Z,41.28
2023-02-08T11:34:03.385Z,48.10
2023-02-08T11:36:33.858Z,41.22
2023-02-08T11:39:04.432Z,40.00
2023-02-08T11:41:33.761Z,40.40
2023-02-08T11:44:05.719Z,36.20
2023-02-08T11:46:37.348Z,37.17
2023-02-08T11:49:05.892Z,36.70
2023-02-08T11:51:37.606Z,38.30
2023-02-08T11:54:07.866Z,40.40
2023-02-08T11:56:36.522Z,33.08
2023-02-08T11:59:22.566Z,32.55
2023-02-08T12:01:52.532Z,35.75
2023-02-08T12:04:22.267Z,35.67
2023-02-08T12:07:19.621Z,32.75
2023-02-08T12:10:11.275Z,30.05
2023-02-08T12:12:53.068Z,35.17
2023-02-08T12:15:44.993Z,33.13
2023-02-08T12:18:51.631Z,27.73
2023-02-08T12:21:24.421Z,20.83
2023-02-08T12:23:58.636Z,29.00
2023-02-08T12:26:52.302Z,30.08
2023-02-08T12:29:46.860Z,32.70
2023-02-08T12:32:37.542Z,31.23
2023-02-08T12:35:41.354Z,32.85
2023-02-08T12:38:41.864Z,31.85
2023-02-08T12:41:19.831Z,37.38
2023-02-08T12:43:58.709Z,33.67
2023-02-08T12:46:51.563Z,29.35
2023-02-08T12:49:52.522Z,32.13
2023-02-08T12:52:32.778Z,33.30
2023-02-08T12:55:05.498Z,34.50
2023-02-08T12:57:44.117Z,33.50
2023-02-08T13:00:21.656Z,36.15
2023-02-08T13:02:58.620Z,39.83
2023-02-08T13:05:34.136Z,39.28
2023-02-08T13:08:14.607Z,39.88
2023-02-08T13:10:44.991Z,32.53
2023-02-08T13:13:19.307Z,41.55
2023-02-08T13:15:53.250Z,41.55
2023-02-08T13:18:26.476Z,34.42
2023-02-08T13:21:01.297Z,37.20
2023-02-08T13:23:43.494Z,43.63
2023-02-08T13:26:24.749Z,38.65
2023-02-08T13:28:55.350Z,37.58
2023-02-08T13:31:26.654Z,43.00
2023-02-08T13:34:01.955Z,38.28
2023-02-08T13:36:35.331Z,44.35
2023-02-08T13:39:08.340Z,41.65
2023-02-08T13:41:38.083Z,42.53
2023-02-08T13:44:08.882Z,44.25
2023-02-08T13:46:45.257Z,44.75
2023-02-08T13:49:47.595Z,41.75
2023-02-08T13:52:52.216Z,40.65
2023-02-08T13:56:05.832Z,47.65
2023-02-08T13:58:58.484Z,42.13
2023-02-08T14:01:29.246Z,33.58
2023-02-08T14:04:31.223Z,40.63
2023-02-08T14:07:16.310Z,42.53
2023-02-08T14:09:55.224Z,44.50
2023-02-08T14:12:33.119Z,47.28
2023-02-08T14:15:27.523Z,45.45
2023-02-08T14:18:09.599Z,40.65
2023-02-08T14:20:43.038Z,44.35
2023-02-08T14:23:24.185Z,48.20
2023-02-08T14:25:56.185Z,43.33
2023-02-08T14:28:28.406Z,43.33
2023-02-08T14:31:01.696Z,39.55
2023-02-08T14:33:33.503Z,52.53
2023-02-08T14:36:04.028Z,44.53
2023-02-08T14:38:53.112Z,48.53
2023-02-08T14:41:44.412Z,44.03
2023-02-08T14:44:55.417Z,46.90
2023-02-08T14:47:59.997Z,42.92
2023-02-08T14:50:38.221Z,33.22
2023-02-08T14:53:17.873Z,45.08
2023-02-08T14:55:51.542Z,49.83
2023-02-08T14:58:28.822Z,48.45
2023-02-08T15:01:01.182Z,46.85
2023-02-08T15:03:33.755Z,49.65
2023-02-08T15:08:58.535Z,48.58
2023-02-08T15:11:28.875Z,49.75
2023-02-08T15:14:00.856Z,47.75
2023-02-08T15:16:31.013Z,51.05
2023-02-08T15:18:59.076Z,48.70
2023-02-08T15:21:31.643Z,50.70
2023-02-08T15:24:04.312Z,47.25
2023-02-08T15:26:34.149Z,55.38
2023-02-08T15:29:02.193Z,61.08
2023-02-08T15:31:32.578Z,51.20
2023-02-08T15:34:01.305Z,63.67
2023-02-08T15:36:30.565Z,56.38
2023-02-08T15:38:59.223Z,54.28
2023-02-08T15:41:29.846Z,60.60
2023-02-08T15:44:13.330Z,61.00
2023-02-08T15:46:42.461Z,50.92
2023-02-08T15:49:13.784Z,57.17
2023-02-08T15:51:42.144Z,50.00
2023-02-08T15:54:14.794Z,60.40
2023-02-08T15:56:48.710Z,61.67
2023-02-08T15:59:19.419Z,54.55
2023-02-08T16:01:48.440Z,53.92
2023-02-08T16:04:16.728Z,59.15
2023-02-08T16:06:47.577Z,49.10
2023-02-08T16:09:17.726Z,47.80
2023-02-08T16:11:49.427Z,55.83
2023-02-08T16:14:19.153Z,54.83
2023-02-08T16:16:50.042Z,53.25
2023-02-08T16:19:25.948Z,51.78
2023-02-08T16:21:56.499Z,49.85
2023-02-08T16:24:27.052Z,45.38
2023-02-08T16:27:04.661Z,52.88
2023-02-08T16:29:34.090Z,48.63
2023-02-08T16:32:09.905Z,53.33
2023-02-08T16:34:41.607Z,51.75
2023-02-08T16:37:24.672Z,57.70
2023-02-08T16:39:53.804Z,52.13
2023-02-08T16:45:13.931Z,55.42
2023-02-08T16:47:44.772Z,55.85
2023-02-08T16:50:19.349Z,55.53
2023-02-08T16:52:49.139Z,49.50
2023-02-08T16:55:18.906Z,55.67
2023-02-08T16:57:48.204Z,48.03
2023-02-08T17:00:23.883Z,56.17
2023-02-08T17:02:53.866Z,58.90
2023-02-08T17:05:22.822Z,65.28
2023-02-08T17:07:51.508Z,58.72
2023-02-08T17:10:26.047Z,58.80
2023-02-08T17:13:09.798Z,62.55
2023-02-08T17:15:44.499Z,53.80
2023-02-08T17:18:16.765Z,62.70
2023-02-08T17:20:45.136Z,53.42
2023-02-08T17:23:15.544Z,57.17
2023-02-08T17:25:44.147Z,57.28
2023-02-08T17:28:21.065Z,54.28
2023-02-08T17:33:52.345Z,54.47
2023-02-08T17:36:23.367Z,61.00
2023-02-08T17:38:52.397Z,62.50
2023-02-08T17:41:21.794Z,71.05
2023-02-08T17:43:51.138Z,61.33
2023-02-08T17:46:27.764Z,70.50
2023-02-08T17:48:55.993Z,70.72
2023-02-08T17:51:26.434Z,61.78
2023-02-08T17:53:54.675Z,73.75
2023-02-08T17:56:23.581Z,77.05
2023-02-08T17:58:53.769Z,70.47
2023-02-08T18:01:23.230Z,63.55
2023-02-08T18:03:52.469Z,67.78
2023-02-08T18:06:21.063Z,68.10
2023-02-08T18:08:50.992Z,63.30
2023-02-08T18:11:20.311Z,70.35
2023-02-08T18:13:48.955Z,68.63
2023-02-08T18:16:18.081Z,72.60
2023-02-08T18:18:46.474Z,68.70
2023-02-08T18:21:15.375Z,79.95
2023-02-08T18:23:43.824Z,65.18
2023-02-08T18:26:13.969Z,75.28
2023-02-08T18:28:42.304Z,70.10
2023-02-08T18:31:12.430Z,80.30
2023-02-08T18:33:40.734Z,80.78
2023-02-08T18:36:11.408Z,84.15
2023-02-08T18:38:39.947Z,76.55
2023-02-08T18:41:14.067Z,84.43
2023-02-08T18:43:43.747Z,73.43
2023-02-08T18:46:12.802Z,74.10
2023-02-08T18:51:10.167Z,66.47
2023-02-08T18:53:39.738Z,75.07
2023-02-08T18:58:38.075Z,79.03
2023-02-08T19:01:08.634Z,78.07
2023-02-08T19:03:37.123Z,67.78
2023-02-08T19:06:05.814Z,76.70
2023-02-08T19:08:37.733Z,70.25
2023-02-08T19:13:35.652Z,56.60
2023-02-08T19:16:03.772Z,35.50
2023-02-08T19:18:33.450Z,59.83
2023-02-08T19:23:29.903Z,60.42
2023-02-08T19:25:57.829Z,68.80
2023-02-08T19:28:26.314Z,57.67
2023-02-08T19:31:03.090Z,60.38
2023-02-08T19:33:31.402Z,60.10
2023-02-08T19:36:06.985Z,61.22
2023-02-08T19:38:35.486Z,63.28
2023-02-08T19:41:03.819Z,63.60
2023-02-08T19:43:32.206Z,59.15
2023-02-08T19:46:00.350Z,53.65
2023-02-08T19:48:29.128Z,64.63
2023-02-08T19:50:57.343Z,61.03
2023-02-08T19:53:30.060Z,54.92
2023-02-08T19:56:01.326Z,52.03
2023-02-08T19:58:30.306Z,61.22
2023-02-08T20:01:09.326Z,48.63
2023-02-08T20:03:38.921Z,56.63
2023-02-08T20:06:07.105Z,56.13
2023-02-08T20:08:36.966Z,53.57
2023-02-08T20:11:05.357Z,42.45
2023-02-08T20:13:33.789Z,48.17
2023-02-08T20:16:02.156Z,56.15
2023-02-08T20:18:30.621Z,44.55
2023-02-08T20:21:06.155Z,54.97
2023-02-08T20:23:35.366Z,53.33
2023-02-08T20:26:10.995Z,60.45
2023-02-08T20:28:40.340Z,63.17
2023-02-08T20:31:10.392Z,53.70
2023-02-08T20:33:40.313Z,55.75
2023-02-08T20:36:09.746Z,55.58
2023-02-08T20:38:38.398Z,54.25
2023-02-08T20:41:07.553Z,52.95
2023-02-08T20:43:37.294Z,55.15
2023-02-08T20:46:06.376Z,48.65
2023-02-08T20:51:06.581Z,52.25
2023-02-08T20:53:35.017Z,36.65
2023-02-08T20:56:05.642Z,49.08
2023-02-08T20:58:34.190Z,46.63
2023-02-08T21:01:03.836Z,44.58
2023-02-08T21:03:32.122Z,45.72
2023-02-08T21:06:00.158Z,42.92
2023-02-08T21:08:28.455Z,49.07
2023-02-08T21:10:56.390Z,48.72
2023-02-08T21:13:24.661Z,41.97
2023-02-08T21:15:52.554Z,43.42
2023-02-08T21:18:22.613Z,45.92
2023-02-08T21:20:51.112Z,43.15
2023-02-08T21:23:19.358Z,46.90
2023-02-08T21:25:47.476Z,48.00
2023-02-08T21:28:15.792Z,38.55
2023-02-08T21:30:44.559Z,44.65
2023-02-08T21:33:13.010Z,45.97
2023-02-08T21:35:42.471Z,42.38
2023-02-08T21:38:10.664Z,39.25
2023-02-08T21:40:49.664Z,41.47
2023-02-08T21:43:26.789Z,44.63
2023-02-08T21:45:55.009Z,35.13
2023-02-08T21:48:23.269Z,34.63
2023-02-08T21:51:10.579Z,41.45
2023-02-08T21:53:56.880Z,38.88
2023-02-08T21:56:24.900Z,41.50
2023-02-08T21:58:53.206Z,44.00
2023-02-08T22:01:21.168Z,40.42
2023-02-08T22:03:49.440Z,41.15
2023-02-08T22:06:36.309Z,34.42
2023-02-08T22:09:04.763Z,36.78
2023-02-08T22:11:34.534Z,45.10
2023-02-08T22:14:03.013Z,38.60
2023-02-08T22:16:31.298Z,36.45
2023-02-08T22:18:59.496Z,39.20
2023-02-08T22:21:28.832Z,34.63
2023-02-08T22:23:57.298Z,37.88
2023-02-08T22:26:25.260Z,39.60
2023-02-08T22:28:53.694Z,40.95
2023-02-08T22:31:21.928Z,42.55
2023-02-08T22:33:52.606Z,42.47
2023-02-08T22:36:20.585Z,40.67
2023-02-08T22:38:50.384Z,40.88
2023-02-08T22:41:18.780Z,42.15
2023-02-08T22:43:47.230Z,44.72
2023-02-08T22:46:15.189Z,39.65
2023-02-08T22:48:43.419Z,45.35
2023-02-08T22:51:13.542Z,41.42
2023-02-08T22:53:42.176Z,39.95
2023-02-08T22:56:11.712Z,44.20
2023-02-08T22:58:39.925Z,44.10
2023-02-08T23:01:10.539Z,47.05
2023-02-08T23:03:38.975Z,43.38
2023-02-08T23:06:07.565Z,40.33
2023-02-08T23:08:35.945Z,39.97
2023-02-08T23:11:05.057Z,52.38
2023-02-08T23:13:35.509Z,41.78
2023-02-08T23:16:03.519Z,47.08
2023-02-08T23:18:31.772Z,38.70
2023-02-08T23:21:01.931Z,49.40
2023-02-08T23:23:30.213Z,55.70
2023-02-08T23:25:58.112Z,45.22
2023-02-08T23:28:26.380Z,50.90
2023-02-08T23:30:55.753Z,49.20
2023-02-08T23:33:23.959Z,47.20
2023-02-08T23:35:51.958Z,55.58
2023-02-08T23:38:20.224Z,44.38
2023-02-08T23:40:48.144Z,54.80
2023-02-08T23:43:17.804Z,51.85
2023-02-08T23:45:45.786Z,50.78
2023-02-08T23:48:15.414Z,49.80
2023-02-08T23:50:44.058Z,40.33
2023-02-08T23:53:12.497Z,50.15
2023-02-08T23:55:40.398Z,50.25
2023-02-08T23:58:08.657Z,52.60
